sensor_id;sensor_type;location;lat;lon;timestamp;temperature;humidity
35894;DHT22;21994;48.204;16.516;2023-03-30T00:01:04;3.70;99.90
35894;DHT22;21994;48.204;16.516;2023-03-30T00:03:36;3.60;99.90
35894;DHT22;21994;48.204;16.516;2023-03-30T00:06:07;3.50;99.90
35894;DHT22;21994;48.204;16.516;2023-03-30T00:08:35;3.50;99.90
35894;DHT22;21994;48.204;16.516;2023-03-30T00:11:12;3.40;99.90
35894;DHT22;21994;48.204;16.516;2023-03-30T00:13:41;3.30;99.90
35894;DHT22;21994;48.204;16.516;2023-03-30T00:16:12;3.30;99.90
35894;DHT22;21994;48.204;16.516;2023-03-30T00:18:38;3.20;99.90
35894;DHT22;21994;48.204;16.516;2023-03-30T00:21:06;3.20;99.90
35894;DHT22;21994;48.204;16.516;2023-03-30T00:23:34;3.10;99.90
35894;DHT22;21994;48.204;16.516;2023-03-30T00:26:00;3.00;99.90
35894;DHT22;21994;48.204;16.516;2023-03-30T00:28:25;3.00;99.90
35894;DHT22;21994;48.204;16.516;2023-03-30T00:30:55;3.00;99.90
35894;DHT22;21994;48.204;16.516;2023-03-30T00:33:21;3.00;99.90
35894;DHT22;21994;48.204;16.516;2023-03-30T00:35:57;3.10;99.90
35894;DHT22;21994;48.204;16.516;2023-03-30T00:38:24;3.10;99.90
35894;DHT22;21994;48.204;16.516;2023-03-30T00:40:57;3.20;99.90
35894;DHT22;21994;48.204;16.516;2023-03-30T00:43:27;3.20;99.90
35894;DHT22;21994;48.204;16.516;2023-03-30T00:45:55;3.20;99.90
35894;DHT22;21994;48.204;16.516;2023-03-30T00:48:31;3.20;99.90
35894;DHT22;21994;48.204;16.516;2023-03-30T00:51:03;3.30;99.90
35894;DHT22;21994;48.204;16.516;2023-03-30T00:56:05;3.40;99.90
35894;DHT22;21994;48.204;16.516;2023-03-30T00:58:34;3.40;99.90
35894;DHT22;21994;48.204;16.516;2023-03-30T01:01:03;3.50;99.90
35894;DHT22;21994;48.204;16.516;2023-03-30T01:03:33;3.60;99.90
35894;DHT22;21994;48.204;16.516;2023-03-30T01:06:04;3.60;99.90
35894;DHT22;21994;48.204;16.516;2023-03-30T01:08:32;3.70;99.90
35894;DHT22;21994;48.204;16.516;2023-03-30T01:10:58;3.80;99.90
35894;DHT22;21994;48.204;16.516;2023-03-30T01:13:29;3.80;99.90
35894;DHT22;21994;48.204;16.516;2023-03-30T01:42:51;4.00;99.90
35894;DHT22;21994;48.204;16.516;2023-03-30T01:45:30;4.00;99.90
35894;DHT22;21994;48.204;16.516;2023-03-30T01:51:22;4.10;99.90
35894;DHT22;21994;48.204;16.516;2023-03-30T01:54:06;4.10;99.90
35894;DHT22;21994;48.204;16.516;2023-03-30T01:56:57;4.20;99.90
35894;DHT22;21994;48.204;16.516;2023-03-30T01:59:30;4.30;99.90
35894;DHT22;21994;48.204;16.516;2023-03-30T02:02:08;4.30;99.90
35894;DHT22;21994;48.204;16.516;2023-03-30T02:04:38;4.40;99.90
35894;DHT22;21994;48.204;16.516;2023-03-30T02:07:13;4.50;99.90
35894;DHT22;21994;48.204;16.516;2023-03-30T02:09:42;4.50;99.90
35894;DHT22;21994;48.204;16.516;2023-03-30T02:12:09;4.60;99.90
35894;DHT22;21994;48.204;16.516;2023-03-30T02:14:38;4.70;99.90
35894;DHT22;21994;48.204;16.516;2023-03-30T02:17:15;4.70;99.90
35894;DHT22;21994;48.204;16.516;2023-03-30T02:19:44;4.70;99.90
35894;DHT22;21994;48.204;16.516;2023-03-30T02:22:15;4.70;99.90
35894;DHT22;21994;48.204;16.516;2023-03-30T02:24:44;4.80;99.90
35894;DHT22;21994;48.204;16.516;2023-03-30T02:27:12;4.80;99.90
35894;DHT22;21994;48.204;16.516;2023-03-30T02:29:41;4.90;99.90
35894;DHT22;21994;48.204;16.516;2023-03-30T02:32:18;4.90;99.90
35894;DHT22;21994;48.204;16.516;2023-03-30T02:40:36;5.00;99.90
35894;DHT22;21994;48.204;16.516;2023-03-30T02:43:53;5.00;99.90
35894;DHT22;21994;48.204;16.516;2023-03-30T02:55:17;5.20;99.90
35894;DHT22;21994;48.204;16.516;2023-03-30T02:58:10;5.10;99.90
35894;DHT22;21994;48.204;16.516;2023-03-30T03:00:54;5.10;99.90
35894;DHT22;21994;48.204;16.516;2023-03-30T03:03:45;5.00;99.90
35894;DHT22;21994;48.204;16.516;2023-03-30T03:06:13;5.00;99.90
35894;DHT22;21994;48.204;16.516;2023-03-30T03:08:41;5.00;99.90
35894;DHT22;21994;48.204;16.516;2023-03-30T03:11:09;5.10;99.90
35894;DHT22;21994;48.204;16.516;2023-03-30T03:13:36;5.00;99.90
35894;DHT22;21994;48.204;16.516;2023-03-30T03:16:04;5.00;99.90
35894;DHT22;21994;48.204;16.516;2023-03-30T03:18:32;5.00;99.90
35894;DHT22;21994;48.204;16.516;2023-03-30T03:21:05;5.00;99.90
35894;DHT22;21994;48.204;16.516;2023-03-30T03:23:35;5.10;99.90
35894;DHT22;21994;48.204;16.516;2023-03-30T03:26:01;5.20;99.90
35894;DHT22;21994;48.204;16.516;2023-03-30T03:28:29;5.20;99.90
35894;DHT22;21994;48.204;16.516;2023-03-30T03:30:55;5.20;99.90
35894;DHT22;21994;48.204;16.516;2023-03-30T03:33:23;5.20;99.90
35894;DHT22;21994;48.204;16.516;2023-03-30T03:35:49;5.10;99.90
35894;DHT22;21994;48.204;16.516;2023-03-30T03:38:22;5.10;99.90
35894;DHT22;21994;48.204;16.516;2023-03-30T03:40:54;5.10;99.90
35894;DHT22;21994;48.204;16.516;2023-03-30T03:43:22;5.30;99.90
35894;DHT22;21994;48.204;16.516;2023-03-30T03:45:48;5.20;99.90
35894;DHT22;21994;48.204;16.516;2023-03-30T03:48:16;5.20;99.90
35894;DHT22;21994;48.204;16.516;2023-03-30T03:50:44;5.20;99.90
35894;DHT22;21994;48.204;16.516;2023-03-30T03:53:14;5.20;99.90
35894;DHT22;21994;48.204;16.516;2023-03-30T03:55:40;5.20;99.90
35894;DHT22;21994;48.204;16.516;2023-03-30T03:58:06;5.10;99.90
35894;DHT22;21994;48.204;16.516;2023-03-30T04:00:33;5.00;99.90
35894;DHT22;21994;48.204;16.516;2023-03-30T04:02:59;5.00;99.90
35894;DHT22;21994;48.204;16.516;2023-03-30T04:05:25;4.90;99.90
35894;DHT22;21994;48.204;16.516;2023-03-30T04:07:51;4.80;99.90
35894;DHT22;21994;48.204;16.516;2023-03-30T04:10:21;4.80;99.90
35894;DHT22;21994;48.204;16.516;2023-03-30T04:12:48;4.80;99.90
35894;DHT22;21994;48.204;16.516;2023-03-30T04:15:14;4.90;99.90
35894;DHT22;21994;48.204;16.516;2023-03-30T04:17:40;4.90;99.90
35894;DHT22;21994;48.204;16.516;2023-03-30T04:20:07;4.80;99.90
35894;DHT22;21994;48.204;16.516;2023-03-30T04:22:36;4.70;99.90
35894;DHT22;21994;48.204;16.516;2023-03-30T04:25:09;4.80;99.90
35894;DHT22;21994;48.204;16.516;2023-03-30T04:27:36;4.80;99.90
35894;DHT22;21994;48.204;16.516;2023-03-30T04:30:06;4.90;99.90
35894;DHT22;21994;48.204;16.516;2023-03-30T04:32:32;4.80;99.90
35894;DHT22;21994;48.204;16.516;2023-03-30T04:35:09;5.00;99.90
35894;DHT22;21994;48.204;16.516;2023-03-30T04:37:36;5.00;99.90
35894;DHT22;21994;48.204;16.516;2023-03-30T04:40:04;4.80;99.90
35894;DHT22;21994;48.204;16.516;2023-03-30T04:42:37;4.80;99.90
35894;DHT22;21994;48.204;16.516;2023-03-30T04:45:07;4.70;99.90
35894;DHT22;21994;48.204;16.516;2023-03-30T04:47:34;4.70;99.90
35894;DHT22;21994;48.204;16.516;2023-03-30T04:50:00;4.60;99.90
35894;DHT22;21994;48.204;16.516;2023-03-30T04:52:27;4.70;99.90
35894;DHT22;21994;48.204;16.516;2023-03-30T04:54:53;4.70;99.90
35894;DHT22;21994;48.204;16.516;2023-03-30T04:57:20;4.80;99.90
35894;DHT22;21994;48.204;16.516;2023-03-30T04:59:46;4.80;99.90
35894;DHT22;21994;48.204;16.516;2023-03-30T05:02:12;4.90;99.90
35894;DHT22;21994;48.204;16.516;2023-03-30T05:04:39;4.80;99.90
35894;DHT22;21994;48.204;16.516;2023-03-30T05:07:05;4.70;99.90
35894;DHT22;21994;48.204;16.516;2023-03-30T05:09:32;4.70;99.90
35894;DHT22;21994;48.204;16.516;2023-03-30T05:11:58;4.70;99.90
35894;DHT22;21994;48.204;16.516;2023-03-30T05:14:24;4.70;99.90
35894;DHT22;21994;48.204;16.516;2023-03-30T05:16:50;4.60;99.90
35894;DHT22;21994;48.204;16.516;2023-03-30T05:19:17;4.60;99.90
35894;DHT22;21994;48.204;16.516;2023-03-30T05:21:43;4.50;99.90
35894;DHT22;21994;48.204;16.516;2023-03-30T05:24:11;4.50;99.90
35894;DHT22;21994;48.204;16.516;2023-03-30T05:26:38;4.50;99.90
35894;DHT22;21994;48.204;16.516;2023-03-30T05:29:04;4.50;99.90
35894;DHT22;21994;48.204;16.516;2023-03-30T05:31:30;4.70;99.90
35894;DHT22;21994;48.204;16.516;2023-03-30T05:33:56;4.80;99.90
35894;DHT22;21994;48.204;16.516;2023-03-30T05:36:21;4.80;99.90
35894;DHT22;21994;48.204;16.516;2023-03-30T05:38:47;4.80;99.90
35894;DHT22;21994;48.204;16.516;2023-03-30T05:41:13;5.00;99.90
35894;DHT22;21994;48.204;16.516;2023-03-30T05:43:39;5.10;99.90
35894;DHT22;21994;48.204;16.516;2023-03-30T05:46:06;5.10;99.90
35894;DHT22;21994;48.204;16.516;2023-03-30T05:48:31;5.10;99.90
35894;DHT22;21994;48.204;16.516;2023-03-30T05:50:57;5.20;99.90
35894;DHT22;21994;48.204;16.516;2023-03-30T05:53:23;5.20;99.90
35894;DHT22;21994;48.204;16.516;2023-03-30T05:55:49;5.40;99.90
35894;DHT22;21994;48.204;16.516;2023-03-30T05:58:16;5.50;99.90
35894;DHT22;21994;48.204;16.516;2023-03-30T06:00:43;5.60;99.90
35894;DHT22;21994;48.204;16.516;2023-03-30T06:03:12;5.70;99.90
35894;DHT22;21994;48.204;16.516;2023-03-30T06:05:39;5.80;99.90
35894;DHT22;21994;48.204;16.516;2023-03-30T06:08:08;5.90;99.90
35894;DHT22;21994;48.204;16.516;2023-03-30T06:10:35;6.10;99.90
35894;DHT22;21994;48.204;16.516;2023-03-30T06:13:02;6.20;99.90
35894;DHT22;21994;48.204;16.516;2023-03-30T06:15:28;6.30;99.90
35894;DHT22;21994;48.204;16.516;2023-03-30T06:17:54;6.50;99.90
35894;DHT22;21994;48.204;16.516;2023-03-30T06:20:20;6.50;99.90
35894;DHT22;21994;48.204;16.516;2023-03-30T06:22:49;6.60;99.90
35894;DHT22;21994;48.204;16.516;2023-03-30T06:25:19;6.60;99.90
35894;DHT22;21994;48.204;16.516;2023-03-30T06:27:46;6.70;99.90
35894;DHT22;21994;48.204;16.516;2023-03-30T06:30:12;6.80;99.90
35894;DHT22;21994;48.204;16.516;2023-03-30T06:32:40;6.80;99.90
35894;DHT22;21994;48.204;16.516;2023-03-30T06:35:09;6.90;99.90
35894;DHT22;21994;48.204;16.516;2023-03-30T06:37:35;7.00;99.90
35894;DHT22;21994;48.204;16.516;2023-03-30T06:40:01;7.20;99.90
35894;DHT22;21994;48.204;16.516;2023-03-30T06:42:45;7.30;99.90
35894;DHT22;21994;48.204;16.516;2023-03-30T06:45:12;7.40;99.90
35894;DHT22;21994;48.204;16.516;2023-03-30T06:47:39;7.50;99.90
35894;DHT22;21994;48.204;16.516;2023-03-30T06:50:08;7.50;99.90
35894;DHT22;21994;48.204;16.516;2023-03-30T06:52:36;7.60;99.90
35894;DHT22;21994;48.204;16.516;2023-03-30T06:55:04;7.60;99.90
35894;DHT22;21994;48.204;16.516;2023-03-30T06:57:30;7.80;99.90
35894;DHT22;21994;48.204;16.516;2023-03-30T06:59:57;7.90;99.90
35894;DHT22;21994;48.204;16.516;2023-03-30T07:02:23;7.80;99.90
35894;DHT22;21994;48.204;16.516;2023-03-30T07:04:50;7.80;99.90
35894;DHT22;21994;48.204;16.516;2023-03-30T07:07:16;7.80;99.90
35894;DHT22;21994;48.204;16.516;2023-03-30T07:09:42;7.90;99.90
35894;DHT22;21994;48.204;16.516;2023-03-30T07:12:08;8.10;99.90
35894;DHT22;21994;48.204;16.516;2023-03-30T07:14:35;8.10;99.90
35894;DHT22;21994;48.204;16.516;2023-03-30T07:17:01;8.20;99.90
35894;DHT22;21994;48.204;16.516;2023-03-30T07:19:27;8.30;99.90
35894;DHT22;21994;48.204;16.516;2023-03-30T07:22:02;8.30;99.90
35894;DHT22;21994;48.204;16.516;2023-03-30T07:24:28;8.30;99.90
35894;DHT22;21994;48.204;16.516;2023-03-30T07:26:56;8.40;99.90
35894;DHT22;21994;48.204;16.516;2023-03-30T07:29:22;8.40;99.90
35894;DHT22;21994;48.204;16.516;2023-03-30T07:31:48;8.50;99.90
35894;DHT22;21994;48.204;16.516;2023-03-30T07:34:15;8.50;99.90
35894;DHT22;21994;48.204;16.516;2023-03-30T07:36:41;8.60;99.90
35894;DHT22;21994;48.204;16.516;2023-03-30T07:39:07;8.80;99.90
35894;DHT22;21994;48.204;16.516;2023-03-30T07:41:33;9.00;99.90
35894;DHT22;21994;48.204;16.516;2023-03-30T07:43:59;9.10;99.90
35894;DHT22;21994;48.204;16.516;2023-03-30T07:46:25;9.20;99.90
35894;DHT22;21994;48.204;16.516;2023-03-30T07:48:51;9.40;99.90
35894;DHT22;21994;48.204;16.516;2023-03-30T07:51:18;9.50;99.90
35894;DHT22;21994;48.204;16.516;2023-03-30T07:53:46;9.70;99.90
35894;DHT22;21994;48.204;16.516;2023-03-30T07:56:12;9.80;99.90
35894;DHT22;21994;48.204;16.516;2023-03-30T07:58:38;10.10;99.90
35894;DHT22;21994;48.204;16.516;2023-03-30T08:01:05;10.40;99.90
35894;DHT22;21994;48.204;16.516;2023-03-30T08:03:31;10.90;99.90
35894;DHT22;21994;48.204;16.516;2023-03-30T08:06:00;11.20;99.90
35894;DHT22;21994;48.204;16.516;2023-03-30T08:08:32;11.40;99.90
35894;DHT22;21994;48.204;16.516;2023-03-30T08:10:58;11.30;99.90
35894;DHT22;21994;48.204;16.516;2023-03-30T08:13:24;11.70;99.80
35894;DHT22;21994;48.204;16.516;2023-03-30T08:15:50;12.00;99.20
35894;DHT22;21994;48.204;16.516;2023-03-30T08:18:18;12.30;98.50
35894;DHT22;21994;48.204;16.516;2023-03-30T08:20:49;12.50;98.80
35894;DHT22;21994;48.204;16.516;2023-03-30T08:23:16;12.90;97.10
35894;DHT22;21994;48.204;16.516;2023-03-30T08:25:41;12.70;97.20
35894;DHT22;21994;48.204;16.516;2023-03-30T08:28:07;12.70;98.00
35894;DHT22;21994;48.204;16.516;2023-03-30T08:30:34;12.70;97.40
35894;DHT22;21994;48.204;16.516;2023-03-30T08:33:00;13.00;96.70
35894;DHT22;21994;48.204;16.516;2023-03-30T08:35:26;13.80;96.20
35894;DHT22;21994;48.204;16.516;2023-03-30T08:37:52;14.10;96.30
35894;DHT22;21994;48.204;16.516;2023-03-30T08:40:18;14.70;95.20
35894;DHT22;21994;48.204;16.516;2023-03-30T08:45:37;14.10;94.70
35894;DHT22;21994;48.204;16.516;2023-03-30T08:48:26;13.80;95.00
35894;DHT22;21994;48.204;16.516;2023-03-30T08:51:02;13.50;95.30
35894;DHT22;21994;48.204;16.516;2023-03-30T08:53:33;13.20;96.80
35894;DHT22;21994;48.204;16.516;2023-03-30T08:56:09;13.10;96.10
35894;DHT22;21994;48.204;16.516;2023-03-30T08:59:01;12.80;97.00
35894;DHT22;21994;48.204;16.516;2023-03-30T09:08:02;12.80;96.60
35894;DHT22;21994;48.204;16.516;2023-03-30T09:10:38;13.10;96.10
35894;DHT22;21994;48.204;16.516;2023-03-30T09:13:08;13.80;97.00
35894;DHT22;21994;48.204;16.516;2023-03-30T09:15:56;14.40;95.30
35894;DHT22;21994;48.204;16.516;2023-03-30T09:18:31;15.30;94.10
35894;DHT22;21994;48.204;16.516;2023-03-30T09:21:01;15.70;93.70
35894;DHT22;21994;48.204;16.516;2023-03-30T09:23:29;15.90;92.10
35894;DHT22;21994;48.204;16.516;2023-03-30T09:29:02;16.30;92.40
35894;DHT22;21994;48.204;16.516;2023-03-30T09:31:39;15.50;92.20
35894;DHT22;21994;48.204;16.516;2023-03-30T09:37:09;14.40;93.60
35894;DHT22;21994;48.204;16.516;2023-03-30T09:39:37;14.10;94.20
35894;DHT22;21994;48.204;16.516;2023-03-30T09:47:55;13.60;94.20
35894;DHT22;21994;48.204;16.516;2023-03-30T09:50:26;13.40;94.80
35894;DHT22;21994;48.204;16.516;2023-03-30T09:53:05;13.40;95.00
35894;DHT22;21994;48.204;16.516;2023-03-30T09:56:08;13.40;95.00
35894;DHT22;21994;48.204;16.516;2023-03-30T09:58:38;13.50;95.40
35894;DHT22;21994;48.204;16.516;2023-03-30T10:01:05;13.50;95.30
35894;DHT22;21994;48.204;16.516;2023-03-30T10:03:39;13.40;95.10
35894;DHT22;21994;48.204;16.516;2023-03-30T10:06:18;13.30;95.00
35894;DHT22;21994;48.204;16.516;2023-03-30T10:08:52;13.20;95.40
35894;DHT22;21994;48.204;16.516;2023-03-30T10:11:40;13.20;95.90
35894;DHT22;21994;48.204;16.516;2023-03-30T10:16:48;12.90;95.00
35894;DHT22;21994;48.204;16.516;2023-03-30T10:19:17;12.90;96.00
35894;DHT22;21994;48.204;16.516;2023-03-30T10:21:44;12.80;95.90
35894;DHT22;21994;48.204;16.516;2023-03-30T10:26:50;12.70;95.60
35894;DHT22;21994;48.204;16.516;2023-03-30T10:29:26;12.70;95.50
35894;DHT22;21994;48.204;16.516;2023-03-30T10:32:09;12.70;96.10
35894;DHT22;21994;48.204;16.516;2023-03-30T10:34:49;12.70;96.00
35894;DHT22;21994;48.204;16.516;2023-03-30T10:37:31;12.80;95.80
35894;DHT22;21994;48.204;16.516;2023-03-30T10:40:02;12.80;96.00
35894;DHT22;21994;48.204;16.516;2023-03-30T10:42:36;12.80;96.20
35894;DHT22;21994;48.204;16.516;2023-03-30T10:45:06;12.90;95.80
35894;DHT22;21994;48.204;16.516;2023-03-30T10:58:57;13.20;95.70
35894;DHT22;21994;48.204;16.516;2023-03-30T11:04:37;13.00;96.20
35894;DHT22;21994;48.204;16.516;2023-03-30T11:07:16;13.10;96.20
35894;DHT22;21994;48.204;16.516;2023-03-30T11:12:59;13.20;95.80
35894;DHT22;21994;48.204;16.516;2023-03-30T11:18:28;13.20;95.90
35894;DHT22;21994;48.204;16.516;2023-03-30T11:21:04;13.30;96.10
35894;DHT22;21994;48.204;16.516;2023-03-30T11:28:59;13.30;96.10
35894;DHT22;21994;48.204;16.516;2023-03-30T11:34:20;13.30;96.00
35894;DHT22;21994;48.204;16.516;2023-03-30T11:39:34;13.40;96.50
35894;DHT22;21994;48.204;16.516;2023-03-30T11:42:21;13.40;96.50
35894;DHT22;21994;48.204;16.516;2023-03-30T11:44:49;13.50;96.90
35894;DHT22;21994;48.204;16.516;2023-03-30T11:47:46;13.50;96.60
35894;DHT22;21994;48.204;16.516;2023-03-30T11:56:41;13.50;96.60
35894;DHT22;21994;48.204;16.516;2023-03-30T11:59:31;13.50;96.50
35894;DHT22;21994;48.204;16.516;2023-03-30T12:02:20;13.60;97.10
35894;DHT22;21994;48.204;16.516;2023-03-30T12:17:39;14.60;96.20
35894;DHT22;21994;48.204;16.516;2023-03-30T12:23:56;15.00;96.40
35894;DHT22;21994;48.204;16.516;2023-03-30T12:26:09;15.10;95.70
35894;DHT22;21994;48.204;16.516;2023-03-30T12:28:56;15.30;95.60
35894;DHT22;21994;48.204;16.516;2023-03-30T12:34:32;15.10;95.10
35894;DHT22;21994;48.204;16.516;2023-03-30T12:37:10;15.00;95.50
35894;DHT22;21994;48.204;16.516;2023-03-30T12:45:04;15.10;96.30
35894;DHT22;21994;48.204;16.516;2023-03-30T12:56:12;15.50;96.10
35894;DHT22;21994;48.204;16.516;2023-03-30T13:02:25;15.10;95.40
35894;DHT22;21994;48.204;16.516;2023-03-30T13:05:00;14.80;95.90
35894;DHT22;21994;48.204;16.516;2023-03-30T13:07:29;14.70;96.10
35894;DHT22;21994;48.204;16.516;2023-03-30T13:12:55;14.30;97.60
35894;DHT22;21994;48.204;16.516;2023-03-30T13:20:35;14.10;98.50
35894;DHT22;21994;48.204;16.516;2023-03-30T13:23:24;14.10;99.70
35894;DHT22;21994;48.204;16.516;2023-03-30T13:26:19;14.20;99.50
35894;DHT22;21994;48.204;16.516;2023-03-30T13:29:05;14.20;99.20
35894;DHT22;21994;48.204;16.516;2023-03-30T13:40:29;14.30;99.90
35894;DHT22;21994;48.204;16.516;2023-03-30T13:52:04;14.60;99.50
35894;DHT22;21994;48.204;16.516;2023-03-30T13:54:37;14.60;98.40
35894;DHT22;21994;48.204;16.516;2023-03-30T13:59:38;14.40;99.10
35894;DHT22;21994;48.204;16.516;2023-03-30T14:02:15;14.40;99.90
35894;DHT22;21994;48.204;16.516;2023-03-30T14:04:42;14.40;99.90
35894;DHT22;21994;48.204;16.516;2023-03-30T14:07:17;14.30;99.90
35894;DHT22;21994;48.204;16.516;2023-03-30T14:12:36;14.20;99.90
35894;DHT22;21994;48.204;16.516;2023-03-30T14:17:45;14.00;99.90
35894;DHT22;21994;48.204;16.516;2023-03-30T14:23:36;13.80;99.90
35894;DHT22;21994;48.204;16.516;2023-03-30T14:26:13;13.60;99.90
35894;DHT22;21994;48.204;16.516;2023-03-30T14:28:43;13.60;99.90
35894;DHT22;21994;48.204;16.516;2023-03-30T14:31:17;13.50;99.90
35894;DHT22;21994;48.204;16.516;2023-03-30T14:33:46;13.30;99.90
35894;DHT22;21994;48.204;16.516;2023-03-30T14:36:16;13.10;99.90
35894;DHT22;21994;48.204;16.516;2023-03-30T14:38:53;13.10;99.90
35894;DHT22;21994;48.204;16.516;2023-03-30T14:41:20;13.10;99.90
35894;DHT22;21994;48.204;16.516;2023-03-30T14:43:54;13.10;99.90
35894;DHT22;21994;48.204;16.516;2023-03-30T14:46:24;13.20;99.90
35894;DHT22;21994;48.204;16.516;2023-03-30T14:48:53;13.20;99.90
35894;DHT22;21994;48.204;16.516;2023-03-30T14:51:24;13.20;99.90
35894;DHT22;21994;48.204;16.516;2023-03-30T14:53:52;13.30;99.90
35894;DHT22;21994;48.204;16.516;2023-03-30T14:56:20;13.40;99.90
35894;DHT22;21994;48.204;16.516;2023-03-30T14:58:48;13.40;99.90
35894;DHT22;21994;48.204;16.516;2023-03-30T15:01:19;13.70;99.90
35894;DHT22;21994;48.204;16.516;2023-03-30T15:03:49;13.80;99.90
35894;DHT22;21994;48.204;16.516;2023-03-30T15:06:21;14.00;99.90
35894;DHT22;21994;48.204;16.516;2023-03-30T15:08:49;14.10;99.90
35894;DHT22;21994;48.204;16.516;2023-03-30T15:11:23;14.10;99.90
35894;DHT22;21994;48.204;16.516;2023-03-30T15:13:52;14.10;99.90
35894;DHT22;21994;48.204;16.516;2023-03-30T15:16:27;14.00;99.90
35894;DHT22;21994;48.204;16.516;2023-03-30T15:19:02;14.10;99.90
35894;DHT22;21994;48.204;16.516;2023-03-30T15:21:33;14.10;99.90
35894;DHT22;21994;48.204;16.516;2023-03-30T15:24:03;14.10;99.90
35894;DHT22;21994;48.204;16.516;2023-03-30T15:26:31;14.10;99.90
35894;DHT22;21994;48.204;16.516;2023-03-30T15:28:57;13.90;99.90
35894;DHT22;21994;48.204;16.516;2023-03-30T15:31:26;13.80;99.90
35894;DHT22;21994;48.204;16.516;2023-03-30T15:33:55;13.80;99.90
35894;DHT22;21994;48.204;16.516;2023-03-30T15:36:42;13.70;99.90
35894;DHT22;21994;48.204;16.516;2023-03-30T15:39:20;13.50;99.90
35894;DHT22;21994;48.204;16.516;2023-03-30T15:42:06;13.50;99.90
35894;DHT22;21994;48.204;16.516;2023-03-30T15:44:36;13.40;99.90
35894;DHT22;21994;48.204;16.516;2023-03-30T15:47:17;13.30;99.90
35894;DHT22;21994;48.204;16.516;2023-03-30T15:49:48;13.20;99.90
35894;DHT22;21994;48.204;16.516;2023-03-30T15:52:25;13.00;99.90
35894;DHT22;21994;48.204;16.516;2023-03-30T15:55:43;12.90;99.90
35894;DHT22;21994;48.204;16.516;2023-03-30T15:57:59;12.80;99.90
35894;DHT22;21994;48.204;16.516;2023-03-30T16:00:30;12.90;99.90
35894;DHT22;21994;48.204;16.516;2023-03-30T16:02:59;12.80;99.90
35894;DHT22;21994;48.204;16.516;2023-03-30T16:05:28;12.80;99.90
35894;DHT22;21994;48.204;16.516;2023-03-30T16:07:56;12.70;99.90
35894;DHT22;21994;48.204;16.516;2023-03-30T16:10:32;12.60;99.90
35894;DHT22;21994;48.204;16.516;2023-03-30T16:12:59;12.50;99.90
35894;DHT22;21994;48.204;16.516;2023-03-30T16:15:28;12.40;99.90
35894;DHT22;21994;48.204;16.516;2023-03-30T16:17:55;12.40;99.90
35894;DHT22;21994;48.204;16.516;2023-03-30T16:20:29;12.30;99.90
35894;DHT22;21994;48.204;16.516;2023-03-30T16:22:56;12.20;99.90
35894;DHT22;21994;48.204;16.516;2023-03-30T16:25:24;12.30;99.90
35894;DHT22;21994;48.204;16.516;2023-03-30T16:27:52;12.30;99.90
35894;DHT22;21994;48.204;16.516;2023-03-30T16:30:32;12.30;99.90
35894;DHT22;21994;48.204;16.516;2023-03-30T16:33:03;12.40;99.90
35894;DHT22;21994;48.204;16.516;2023-03-30T16:35:30;12.40;99.90
35894;DHT22;21994;48.204;16.516;2023-03-30T16:37:56;12.10;99.90
35894;DHT22;21994;48.204;16.516;2023-03-30T16:40:32;11.90;99.90
35894;DHT22;21994;48.204;16.516;2023-03-30T16:43:00;11.80;99.90
35894;DHT22;21994;48.204;16.516;2023-03-30T16:45:26;11.70;99.90
35894;DHT22;21994;48.204;16.516;2023-03-30T16:47:53;11.60;99.90
35894;DHT22;21994;48.204;16.516;2023-03-30T16:50:23;11.60;99.90
35894;DHT22;21994;48.204;16.516;2023-03-30T16:52:59;11.50;99.90
35894;DHT22;21994;48.204;16.516;2023-03-30T16:55:25;11.40;99.90
35894;DHT22;21994;48.204;16.516;2023-03-30T16:57:51;11.50;99.90
35894;DHT22;21994;48.204;16.516;2023-03-30T17:00:21;11.50;99.90
35894;DHT22;21994;48.204;16.516;2023-03-30T17:02:49;11.50;99.90
35894;DHT22;21994;48.204;16.516;2023-03-30T17:05:18;11.40;99.90
35894;DHT22;21994;48.204;16.516;2023-03-30T17:07:44;11.40;99.90
35894;DHT22;21994;48.204;16.516;2023-03-30T17:12:41;11.30;99.90
35894;DHT22;21994;48.204;16.516;2023-03-30T17:15:10;11.30;99.90
35894;DHT22;21994;48.204;16.516;2023-03-30T17:17:37;11.50;99.90
35894;DHT22;21994;48.204;16.516;2023-03-30T17:20:20;11.60;99.90
35894;DHT22;21994;48.204;16.516;2023-03-30T17:22:56;11.60;99.90
35894;DHT22;21994;48.204;16.516;2023-03-30T17:25:22;11.80;99.90
35894;DHT22;21994;48.204;16.516;2023-03-30T17:27:54;11.90;99.90
35894;DHT22;21994;48.204;16.516;2023-03-30T17:30:32;12.10;99.90
35894;DHT22;21994;48.204;16.516;2023-03-30T17:33:00;12.30;99.90
35894;DHT22;21994;48.204;16.516;2023-03-30T17:35:26;12.40;99.90
35894;DHT22;21994;48.204;16.516;2023-03-30T17:37:53;12.50;99.90
35894;DHT22;21994;48.204;16.516;2023-03-30T17:40:27;12.50;99.90
35894;DHT22;21994;48.204;16.516;2023-03-30T17:42:54;12.60;99.90
35894;DHT22;21994;48.204;16.516;2023-03-30T17:45:23;12.80;99.90
35894;DHT22;21994;48.204;16.516;2023-03-30T17:47:50;12.90;99.90
35894;DHT22;21994;48.204;16.516;2023-03-30T17:50:23;13.00;99.90
35894;DHT22;21994;48.204;16.516;2023-03-30T17:52:52;13.10;99.90
35894;DHT22;21994;48.204;16.516;2023-03-30T17:55:24;13.20;99.90
35894;DHT22;21994;48.204;16.516;2023-03-30T17:57:51;13.30;99.90
35894;DHT22;21994;48.204;16.516;2023-03-30T18:02:59;13.30;99.90
35894;DHT22;21994;48.204;16.516;2023-03-30T18:05:28;13.30;99.90
35894;DHT22;21994;48.204;16.516;2023-03-30T18:07:56;13.40;99.90
35894;DHT22;21994;48.204;16.516;2023-03-30T18:10:35;13.40;99.90
35894;DHT22;21994;48.204;16.516;2023-03-30T18:13:03;13.40;99.90
35894;DHT22;21994;48.204;16.516;2023-03-30T18:15:30;13.50;99.90
35894;DHT22;21994;48.204;16.516;2023-03-30T18:17:58;13.50;99.90
35894;DHT22;21994;48.204;16.516;2023-03-30T18:20:32;13.40;99.90
35894;DHT22;21994;48.204;16.516;2023-03-30T18:23:01;13.40;99.90
35894;DHT22;21994;48.204;16.516;2023-03-30T18:25:27;13.40;99.90
35894;DHT22;21994;48.204;16.516;2023-03-30T18:27:54;13.30;99.90
35894;DHT22;21994;48.204;16.516;2023-03-30T18:30:28;13.40;99.90
35894;DHT22;21994;48.204;16.516;2023-03-30T18:32:56;13.30;99.90
35894;DHT22;21994;48.204;16.516;2023-03-30T18:35:25;13.30;99.90
35894;DHT22;21994;48.204;16.516;2023-03-30T18:37:53;13.40;99.90
35894;DHT22;21994;48.204;16.516;2023-03-30T18:43:07;13.50;99.90
35894;DHT22;21994;48.204;16.516;2023-03-30T18:45:37;13.60;99.90
35894;DHT22;21994;48.204;16.516;2023-03-30T18:48:06;13.60;99.90
35894;DHT22;21994;48.204;16.516;2023-03-30T18:53:04;13.60;99.90
35894;DHT22;21994;48.204;16.516;2023-03-30T18:55:34;13.60;99.90
35894;DHT22;21994;48.204;16.516;2023-03-30T18:58:11;13.50;99.90
35894;DHT22;21994;48.204;16.516;2023-03-30T19:00:44;13.50;99.90